Terminal Aerodrome Forecast
Issued by NWS

Home | Current Version | Previous Version | Text Only | Print | Product List | Glossary On
Versions: 1 2 3 4 5 6 7 8
000
FTUS44 KBMX 270500
TAFANB
TAF
KANB 270520Z 2706/2806 VRB03KT P6SM BKN150
     FM271800 09005KT P6SM OVC050
     FM272200 11004KT 6SM -RA BR SCT025 OVC040
     FM280200 10004KT 5SM -RA BR SCT015 OVC025
     FM280400 10006KT 4SM RA BR SCT007 OVC015=

USA.gov is the U.S. government's official web portal to all federal, state and local government web resources and services.